sensor_id;sensor_type;location;lat;lon;timestamp;temperature;humidity
43627;DHT22;29217;52.586;13.442;2023-08-12T00:00:56;16.20;99.90
43627;DHT22;29217;52.586;13.442;2023-08-12T00:03:22;16.20;99.90
43627;DHT22;29217;52.586;13.442;2023-08-12T00:05:48;16.10;99.90
43627;DHT22;29217;52.586;13.442;2023-08-12T00:08:13;16.10;99.90
43627;DHT22;29217;52.586;13.442;2023-08-12T00:10:39;16.10;99.90
43627;DHT22;29217;52.586;13.442;2023-08-12T00:13:04;16.00;99.90
43627;DHT22;29217;52.586;13.442;2023-08-12T00:15:30;16.00;99.90
43627;DHT22;29217;52.586;13.442;2023-08-12T00:17:56;16.00;99.90
43627;DHT22;29217;52.586;13.442;2023-08-12T00:20:21;15.90;99.90
43627;DHT22;29217;52.586;13.442;2023-08-12T00:22:47;15.90;99.90
43627;DHT22;29217;52.586;13.442;2023-08-12T00:25:13;15.90;99.90
43627;DHT22;29217;52.586;13.442;2023-08-12T00:27:38;15.90;99.90
43627;DHT22;29217;52.586;13.442;2023-08-12T00:30:05;15.90;99.90
43627;DHT22;29217;52.586;13.442;2023-08-12T00:32:30;15.90;99.90
43627;DHT22;29217;52.586;13.442;2023-08-12T00:34:56;15.90;99.90
43627;DHT22;29217;52.586;13.442;2023-08-12T00:37:22;15.90;99.90
43627;DHT22;29217;52.586;13.442;2023-08-12T00:39:47;15.80;99.90
43627;DHT22;29217;52.586;13.442;2023-08-12T00:42:13;15.80;99.90
43627;DHT22;29217;52.586;13.442;2023-08-12T00:44:38;15.80;99.90
43627;DHT22;29217;52.586;13.442;2023-08-12T00:47:04;15.80;99.90
43627;DHT22;29217;52.586;13.442;2023-08-12T00:49:31;15.80;99.90
43627;DHT22;29217;52.586;13.442;2023-08-12T00:51:58;15.80;99.90
43627;DHT22;29217;52.586;13.442;2023-08-12T00:54:25;15.80;99.90
43627;DHT22;29217;52.586;13.442;2023-08-12T00:56:53;15.80;99.90
43627;DHT22;29217;52.586;13.442;2023-08-12T00:59:20;15.80;99.90
43627;DHT22;29217;52.586;13.442;2023-08-12T01:01:47;15.90;99.90
43627;DHT22;29217;52.586;13.442;2023-08-12T01:04:13;15.90;99.90
43627;DHT22;29217;52.586;13.442;2023-08-12T01:06:38;15.80;99.90
43627;DHT22;29217;52.586;13.442;2023-08-12T01:09:05;15.90;99.90
43627;DHT22;29217;52.586;13.442;2023-08-12T01:14:46;15.80;99.90
43627;DHT22;29217;52.586;13.442;2023-08-12T01:17:15;15.80;99.90
43627;DHT22;29217;52.586;13.442;2023-08-12T01:19:43;15.80;99.90
43627;DHT22;29217;52.586;13.442;2023-08-12T01:22:10;15.80;99.90
43627;DHT22;29217;52.586;13.442;2023-08-12T01:24:38;15.80;99.90
43627;DHT22;29217;52.586;13.442;2023-08-12T01:27:05;15.80;99.90
43627;DHT22;29217;52.586;13.442;2023-08-12T01:29:33;15.70;99.90
43627;DHT22;29217;52.586;13.442;2023-08-12T01:32:17;15.50;99.90
43627;DHT22;29217;52.586;13.442;2023-08-12T01:35:35;15.50;99.90
43627;DHT22;29217;52.586;13.442;2023-08-12T01:37:35;15.50;99.90
43627;DHT22;29217;52.586;13.442;2023-08-12T01:40:03;15.60;99.90
43627;DHT22;29217;52.586;13.442;2023-08-12T01:42:31;15.60;99.90
43627;DHT22;29217;52.586;13.442;2023-08-12T01:44:59;15.70;99.90
43627;DHT22;29217;52.586;13.442;2023-08-12T01:47:27;15.60;99.90
43627;DHT22;29217;52.586;13.442;2023-08-12T01:49:52;15.60;99.90
43627;DHT22;29217;52.586;13.442;2023-08-12T01:52:18;15.60;99.90
43627;DHT22;29217;52.586;13.442;2023-08-12T01:54:43;15.50;99.90
43627;DHT22;29217;52.586;13.442;2023-08-12T01:57:09;15.50;99.90
43627;DHT22;29217;52.586;13.442;2023-08-12T01:59:35;15.50;99.90
43627;DHT22;29217;52.586;13.442;2023-08-12T02:02:01;15.50;99.90
43627;DHT22;29217;52.586;13.442;2023-08-12T02:04:27;15.50;99.90
43627;DHT22;29217;52.586;13.442;2023-08-12T02:06:54;15.50;99.90
43627;DHT22;29217;52.586;13.442;2023-08-12T02:09:19;15.50;99.90
43627;DHT22;29217;52.586;13.442;2023-08-12T02:11:45;15.50;99.90
43627;DHT22;29217;52.586;13.442;2023-08-12T02:14:11;15.40;99.90
43627;DHT22;29217;52.586;13.442;2023-08-12T02:16:36;15.40;99.90
43627;DHT22;29217;52.586;13.442;2023-08-12T02:19:02;15.40;99.90
43627;DHT22;29217;52.586;13.442;2023-08-12T02:21:28;15.40;99.90
43627;DHT22;29217;52.586;13.442;2023-08-12T02:23:53;15.40;99.90
43627;DHT22;29217;52.586;13.442;2023-08-12T02:26:19;15.40;99.90
43627;DHT22;29217;52.586;13.442;2023-08-12T02:28:44;15.40;99.90
43627;DHT22;29217;52.586;13.442;2023-08-12T02:31:10;15.40;99.90
43627;DHT22;29217;52.586;13.442;2023-08-12T02:33:35;15.40;99.90
43627;DHT22;29217;52.586;13.442;2023-08-12T02:36:01;15.50;99.90
43627;DHT22;29217;52.586;13.442;2023-08-12T02:38:27;15.50;99.90
43627;DHT22;29217;52.586;13.442;2023-08-12T02:40:52;15.50;99.90
43627;DHT22;29217;52.586;13.442;2023-08-12T02:43:18;15.50;99.90
43627;DHT22;29217;52.586;13.442;2023-08-12T02:45:43;15.50;99.90
43627;DHT22;29217;52.586;13.442;2023-08-12T02:48:12;15.50;99.90
43627;DHT22;29217;52.586;13.442;2023-08-12T02:50:38;15.50;99.90
43627;DHT22;29217;52.586;13.442;2023-08-12T02:53:05;15.60;99.90
43627;DHT22;29217;52.586;13.442;2023-08-12T02:55:31;15.50;99.90
43627;DHT22;29217;52.586;13.442;2023-08-12T02:58:00;15.50;99.90
43627;DHT22;29217;52.586;13.442;2023-08-12T03:00:26;15.50;99.90
43627;DHT22;29217;52.586;13.442;2023-08-12T03:02:52;15.50;99.90
43627;DHT22;29217;52.586;13.442;2023-08-12T03:05:18;15.50;99.90
43627;DHT22;29217;52.586;13.442;2023-08-12T03:07:44;15.50;99.90
43627;DHT22;29217;52.586;13.442;2023-08-12T03:10:10;15.50;99.90
43627;DHT22;29217;52.586;13.442;2023-08-12T03:12:36;15.50;99.90
43627;DHT22;29217;52.586;13.442;2023-08-12T03:15:02;15.50;99.90
43627;DHT22;29217;52.586;13.442;2023-08-12T03:17:28;15.50;99.90
43627;DHT22;29217;52.586;13.442;2023-08-12T03:19:54;15.60;99.90
43627;DHT22;29217;52.586;13.442;2023-08-12T03:22:20;15.60;99.90
43627;DHT22;29217;52.586;13.442;2023-08-12T03:24:46;15.60;99.90
43627;DHT22;29217;52.586;13.442;2023-08-12T03:27:12;15.60;99.90
43627;DHT22;29217;52.586;13.442;2023-08-12T03:29:38;15.50;99.90
43627;DHT22;29217;52.586;13.442;2023-08-12T03:32:03;15.50;99.90
43627;DHT22;29217;52.586;13.442;2023-08-12T03:34:29;15.50;99.90
43627;DHT22;29217;52.586;13.442;2023-08-12T03:36:55;15.50;99.90
43627;DHT22;29217;52.586;13.442;2023-08-12T03:39:20;15.50;99.90
43627;DHT22;29217;52.586;13.442;2023-08-12T03:41:46;15.50;99.90
43627;DHT22;29217;52.586;13.442;2023-08-12T03:44:12;15.50;99.90
43627;DHT22;29217;52.586;13.442;2023-08-12T03:46:37;15.40;99.90
43627;DHT22;29217;52.586;13.442;2023-08-12T03:49:03;15.40;99.90
43627;DHT22;29217;52.586;13.442;2023-08-12T03:51:28;15.40;99.90
43627;DHT22;29217;52.586;13.442;2023-08-12T03:53:54;15.30;99.90
43627;DHT22;29217;52.586;13.442;2023-08-12T03:56:20;15.30;99.90
43627;DHT22;29217;52.586;13.442;2023-08-12T03:58:45;15.30;99.90
43627;DHT22;29217;52.586;13.442;2023-08-12T04:01:11;15.20;99.90
43627;DHT22;29217;52.586;13.442;2023-08-12T04:03:36;15.40;99.90
43627;DHT22;29217;52.586;13.442;2023-08-12T04:06:02;15.30;99.90
43627;DHT22;29217;52.586;13.442;2023-08-12T04:08:28;15.30;99.90
43627;DHT22;29217;52.586;13.442;2023-08-12T04:10:54;15.40;99.90
43627;DHT22;29217;52.586;13.442;2023-08-12T04:13:20;15.40;99.90
43627;DHT22;29217;52.586;13.442;2023-08-12T04:15:49;15.30;99.90
43627;DHT22;29217;52.586;13.442;2023-08-12T04:18:15;15.30;99.90
43627;DHT22;29217;52.586;13.442;2023-08-12T04:20:41;15.30;99.90
43627;DHT22;29217;52.586;13.442;2023-08-12T04:23:06;15.30;99.90
43627;DHT22;29217;52.586;13.442;2023-08-12T04:25:32;15.40;99.90
43627;DHT22;29217;52.586;13.442;2023-08-12T04:27:58;15.40;99.90
43627;DHT22;29217;52.586;13.442;2023-08-12T04:30:23;15.40;99.90
43627;DHT22;29217;52.586;13.442;2023-08-12T04:32:49;15.50;99.90
43627;DHT22;29217;52.586;13.442;2023-08-12T04:35:15;15.50;99.90
43627;DHT22;29217;52.586;13.442;2023-08-12T04:37:40;15.50;99.90
43627;DHT22;29217;52.586;13.442;2023-08-12T04:40:06;15.60;99.90
43627;DHT22;29217;52.586;13.442;2023-08-12T04:42:33;15.60;99.90
43627;DHT22;29217;52.586;13.442;2023-08-12T04:44:58;15.60;99.90
43627;DHT22;29217;52.586;13.442;2023-08-12T04:47:24;15.60;99.90
43627;DHT22;29217;52.586;13.442;2023-08-12T04:49:50;15.70;99.90
43627;DHT22;29217;52.586;13.442;2023-08-12T04:52:15;15.70;99.90
43627;DHT22;29217;52.586;13.442;2023-08-12T04:54:41;15.90;99.90
43627;DHT22;29217;52.586;13.442;2023-08-12T04:57:06;15.90;99.90
43627;DHT22;29217;52.586;13.442;2023-08-12T04:59:32;16.00;99.90
43627;DHT22;29217;52.586;13.442;2023-08-12T05:01:57;16.10;99.90
43627;DHT22;29217;52.586;13.442;2023-08-12T05:04:23;16.20;99.90
43627;DHT22;29217;52.586;13.442;2023-08-12T05:06:49;16.30;99.90
43627;DHT22;29217;52.586;13.442;2023-08-12T05:09:14;16.50;99.90
43627;DHT22;29217;52.586;13.442;2023-08-12T05:11:40;16.60;99.90
43627;DHT22;29217;52.586;13.442;2023-08-12T05:14:05;16.70;99.90
43627;DHT22;29217;52.586;13.442;2023-08-12T05:16:31;16.90;99.90
43627;DHT22;29217;52.586;13.442;2023-08-12T05:18:57;17.10;99.90
43627;DHT22;29217;52.586;13.442;2023-08-12T05:21:22;17.20;99.90
43627;DHT22;29217;52.586;13.442;2023-08-12T05:23:48;17.40;99.90
43627;DHT22;29217;52.586;13.442;2023-08-12T05:26:14;17.60;99.90
43627;DHT22;29217;52.586;13.442;2023-08-12T05:28:39;17.80;99.90
43627;DHT22;29217;52.586;13.442;2023-08-12T05:31:05;17.90;99.90
43627;DHT22;29217;52.586;13.442;2023-08-12T05:33:31;18.10;99.90
43627;DHT22;29217;52.586;13.442;2023-08-12T05:35:57;18.30;99.90
43627;DHT22;29217;52.586;13.442;2023-08-12T05:38:22;18.50;99.90
43627;DHT22;29217;52.586;13.442;2023-08-12T05:40:48;18.60;99.90
43627;DHT22;29217;52.586;13.442;2023-08-12T05:43:14;18.70;99.90
43627;DHT22;29217;52.586;13.442;2023-08-12T05:45:39;18.80;99.90
43627;DHT22;29217;52.586;13.442;2023-08-12T05:48:05;18.90;99.90
43627;DHT22;29217;52.586;13.442;2023-08-12T05:50:31;18.90;99.90
43627;DHT22;29217;52.586;13.442;2023-08-12T05:52:56;18.90;99.90
43627;DHT22;29217;52.586;13.442;2023-08-12T05:55:22;19.00;99.90
43627;DHT22;29217;52.586;13.442;2023-08-12T05:57:48;18.90;99.90
43627;DHT22;29217;52.586;13.442;2023-08-12T06:00:13;18.90;99.90
43627;DHT22;29217;52.586;13.442;2023-08-12T06:02:39;19.00;99.90
43627;DHT22;29217;52.586;13.442;2023-08-12T06:05:05;19.10;99.90
43627;DHT22;29217;52.586;13.442;2023-08-12T06:07:30;19.10;99.90
43627;DHT22;29217;52.586;13.442;2023-08-12T06:09:56;19.20;99.90
43627;DHT22;29217;52.586;13.442;2023-08-12T06:12:22;19.20;99.90
43627;DHT22;29217;52.586;13.442;2023-08-12T06:14:47;19.20;99.90
43627;DHT22;29217;52.586;13.442;2023-08-12T06:17:13;19.30;99.90
43627;DHT22;29217;52.586;13.442;2023-08-12T06:19:38;19.40;99.90
43627;DHT22;29217;52.586;13.442;2023-08-12T06:22:04;19.50;99.90
43627;DHT22;29217;52.586;13.442;2023-08-12T06:24:30;19.60;99.90
43627;DHT22;29217;52.586;13.442;2023-08-12T06:26:55;19.70;99.90
43627;DHT22;29217;52.586;13.442;2023-08-12T06:29:21;19.70;99.90
43627;DHT22;29217;52.586;13.442;2023-08-12T06:31:46;19.80;99.90
43627;DHT22;29217;52.586;13.442;2023-08-12T06:34:12;19.80;99.90
43627;DHT22;29217;52.586;13.442;2023-08-12T06:36:37;19.90;99.90
43627;DHT22;29217;52.586;13.442;2023-08-12T06:39:03;19.90;99.90
43627;DHT22;29217;52.586;13.442;2023-08-12T06:41:29;20.00;99.90
43627;DHT22;29217;52.586;13.442;2023-08-12T06:43:54;20.00;99.90
43627;DHT22;29217;52.586;13.442;2023-08-12T06:46:20;20.10;99.90
43627;DHT22;29217;52.586;13.442;2023-08-12T06:48:45;20.20;99.90
43627;DHT22;29217;52.586;13.442;2023-08-12T06:51:11;20.20;99.90
43627;DHT22;29217;52.586;13.442;2023-08-12T06:53:38;20.30;99.90
43627;DHT22;29217;52.586;13.442;2023-08-12T06:56:04;20.40;99.90
43627;DHT22;29217;52.586;13.442;2023-08-12T06:58:30;20.40;99.90
43627;DHT22;29217;52.586;13.442;2023-08-12T07:00:56;20.60;99.90
43627;DHT22;29217;52.586;13.442;2023-08-12T07:03:22;20.60;99.90
43627;DHT22;29217;52.586;13.442;2023-08-12T07:05:48;20.70;99.90
43627;DHT22;29217;52.586;13.442;2023-08-12T07:08:14;20.70;99.90
43627;DHT22;29217;52.586;13.442;2023-08-12T07:10:40;20.80;99.90
43627;DHT22;29217;52.586;13.442;2023-08-12T07:13:06;20.90;99.90
43627;DHT22;29217;52.586;13.442;2023-08-12T07:15:32;21.00;99.90
43627;DHT22;29217;52.586;13.442;2023-08-12T07:17:57;21.00;99.90
43627;DHT22;29217;52.586;13.442;2023-08-12T07:20:26;21.00;99.90
43627;DHT22;29217;52.586;13.442;2023-08-12T07:22:52;21.10;99.90
43627;DHT22;29217;52.586;13.442;2023-08-12T07:25:17;21.20;99.90
43627;DHT22;29217;52.586;13.442;2023-08-12T07:27:43;21.30;99.90
43627;DHT22;29217;52.586;13.442;2023-08-12T07:30:09;21.30;99.90
43627;DHT22;29217;52.586;13.442;2023-08-12T07:32:37;21.40;99.90
43627;DHT22;29217;52.586;13.442;2023-08-12T07:35:03;21.40;99.90
43627;DHT22;29217;52.586;13.442;2023-08-12T07:37:30;21.50;99.90
43627;DHT22;29217;52.586;13.442;2023-08-12T07:39:56;21.70;99.90
43627;DHT22;29217;52.586;13.442;2023-08-12T07:42:21;21.80;99.90
43627;DHT22;29217;52.586;13.442;2023-08-12T07:44:47;21.90;99.90
43627;DHT22;29217;52.586;13.442;2023-08-12T07:47:12;22.00;99.90
43627;DHT22;29217;52.586;13.442;2023-08-12T07:49:38;22.10;99.90
43627;DHT22;29217;52.586;13.442;2023-08-12T07:52:04;22.20;99.90
43627;DHT22;29217;52.586;13.442;2023-08-12T07:54:30;22.30;99.90
43627;DHT22;29217;52.586;13.442;2023-08-12T07:56:56;22.30;99.90
43627;DHT22;29217;52.586;13.442;2023-08-12T07:59:21;22.40;99.90
43627;DHT22;29217;52.586;13.442;2023-08-12T08:01:47;22.40;99.90
43627;DHT22;29217;52.586;13.442;2023-08-12T08:04:12;22.40;99.90
43627;DHT22;29217;52.586;13.442;2023-08-12T08:06:38;22.50;99.90
43627;DHT22;29217;52.586;13.442;2023-08-12T08:09:04;22.50;99.90
43627;DHT22;29217;52.586;13.442;2023-08-12T08:11:30;22.50;99.90
43627;DHT22;29217;52.586;13.442;2023-08-12T08:13:57;22.50;99.90
43627;DHT22;29217;52.586;13.442;2023-08-12T08:16:24;22.40;99.90
43627;DHT22;29217;52.586;13.442;2023-08-12T08:18:49;22.30;99.90
43627;DHT22;29217;52.586;13.442;2023-08-12T08:21:15;22.30;99.90
43627;DHT22;29217;52.586;13.442;2023-08-12T08:23:42;22.20;99.90
43627;DHT22;29217;52.586;13.442;2023-08-12T08:26:08;22.30;99.90
43627;DHT22;29217;52.586;13.442;2023-08-12T08:28:34;22.20;99.90
43627;DHT22;29217;52.586;13.442;2023-08-12T08:31:00;22.20;99.90
43627;DHT22;29217;52.586;13.442;2023-08-12T08:33:26;22.20;99.90
43627;DHT22;29217;52.586;13.442;2023-08-12T08:35:53;22.10;99.90
43627;DHT22;29217;52.586;13.442;2023-08-12T08:38:18;22.00;99.90
43627;DHT22;29217;52.586;13.442;2023-08-12T08:40:44;22.00;99.90
43627;DHT22;29217;52.586;13.442;2023-08-12T08:43:10;22.00;99.90
43627;DHT22;29217;52.586;13.442;2023-08-12T08:45:41;21.90;99.90
43627;DHT22;29217;52.586;13.442;2023-08-12T08:48:08;21.90;99.90
43627;DHT22;29217;52.586;13.442;2023-08-12T08:50:36;21.80;99.90
43627;DHT22;29217;52.586;13.442;2023-08-12T08:53:02;21.80;99.90
43627;DHT22;29217;52.586;13.442;2023-08-12T08:55:30;21.80;99.90
43627;DHT22;29217;52.586;13.442;2023-08-12T08:57:56;21.80;99.90
43627;DHT22;29217;52.586;13.442;2023-08-12T09:00:22;21.80;99.90
43627;DHT22;29217;52.586;13.442;2023-08-12T09:02:48;21.90;99.90
43627;DHT22;29217;52.586;13.442;2023-08-12T09:05:15;21.90;99.90
43627;DHT22;29217;52.586;13.442;2023-08-12T09:07:42;21.90;99.90
43627;DHT22;29217;52.586;13.442;2023-08-12T09:10:10;21.90;99.90
43627;DHT22;29217;52.586;13.442;2023-08-12T09:12:36;21.90;99.90
43627;DHT22;29217;52.586;13.442;2023-08-12T09:15:02;21.90;99.90
43627;DHT22;29217;52.586;13.442;2023-08-12T09:17:28;21.90;99.90
43627;DHT22;29217;52.586;13.442;2023-08-12T09:19:54;22.00;99.90
43627;DHT22;29217;52.586;13.442;2023-08-12T09:22:21;22.00;99.90
43627;DHT22;29217;52.586;13.442;2023-08-12T09:24:49;22.00;99.90
43627;DHT22;29217;52.586;13.442;2023-08-12T09:27:17;22.10;99.90
43627;DHT22;29217;52.586;13.442;2023-08-12T09:29:43;22.10;99.90
43627;DHT22;29217;52.586;13.442;2023-08-12T09:32:18;22.10;99.90
43627;DHT22;29217;52.586;13.442;2023-08-12T09:34:51;22.20;99.90
43627;DHT22;29217;52.586;13.442;2023-08-12T09:37:18;22.40;99.90
43627;DHT22;29217;52.586;13.442;2023-08-12T09:39:44;22.60;99.90
43627;DHT22;29217;52.586;13.442;2023-08-12T09:42:11;22.70;99.90
43627;DHT22;29217;52.586;13.442;2023-08-12T09:44:37;22.90;99.90
43627;DHT22;29217;52.586;13.442;2023-08-12T09:47:03;22.90;99.90
43627;DHT22;29217;52.586;13.442;2023-08-12T09:49:29;23.00;99.90
43627;DHT22;29217;52.586;13.442;2023-08-12T09:51:55;23.00;99.90
43627;DHT22;29217;52.586;13.442;2023-08-12T09:54:21;23.00;99.90
43627;DHT22;29217;52.586;13.442;2023-08-12T09:56:48;23.10;99.90
43627;DHT22;29217;52.586;13.442;2023-08-12T09:59:19;23.00;99.90
43627;DHT22;29217;52.586;13.442;2023-08-12T10:01:47;23.00;99.90
43627;DHT22;29217;52.586;13.442;2023-08-12T10:04:14;23.00;99.90
43627;DHT22;29217;52.586;13.442;2023-08-12T10:06:42;23.10;99.90
43627;DHT22;29217;52.586;13.442;2023-08-12T10:09:09;23.10;99.90
43627;DHT22;29217;52.586;13.442;2023-08-12T10:11:37;23.20;99.90
43627;DHT22;29217;52.586;13.442;2023-08-12T10:14:06;23.20;99.90
43627;DHT22;29217;52.586;13.442;2023-08-12T10:16:32;23.30;99.90
43627;DHT22;29217;52.586;13.442;2023-08-12T10:18:59;23.30;99.90
43627;DHT22;29217;52.586;13.442;2023-08-12T10:21:26;23.30;99.90
43627;DHT22;29217;52.586;13.442;2023-08-12T10:23:53;23.30;99.90
43627;DHT22;29217;52.586;13.442;2023-08-12T10:26:19;23.30;99.90
43627;DHT22;29217;52.586;13.442;2023-08-12T10:28:46;23.30;99.90
43627;DHT22;29217;52.586;13.442;2023-08-12T10:31:14;23.30;99.90
43627;DHT22;29217;52.586;13.442;2023-08-12T10:33:40;23.40;99.90
43627;DHT22;29217;52.586;13.442;2023-08-12T10:36:07;23.40;99.90
43627;DHT22;29217;52.586;13.442;2023-08-12T10:38:33;23.50;99.90
43627;DHT22;29217;52.586;13.442;2023-08-12T10:41:21;23.50;99.90
43627;DHT22;29217;52.586;13.442;2023-08-12T10:43:54;23.60;99.90
43627;DHT22;29217;52.586;13.442;2023-08-12T10:46:23;23.60;99.90
43627;DHT22;29217;52.586;13.442;2023-08-12T10:49:03;23.70;99.90
43627;DHT22;29217;52.586;13.442;2023-08-12T10:54:13;23.90;99.90
43627;DHT22;29217;52.586;13.442;2023-08-12T10:57:04;24.00;99.90
43627;DHT22;29217;52.586;13.442;2023-08-12T11:02:25;24.10;99.90
43627;DHT22;29217;52.586;13.442;2023-08-12T11:05:01;24.20;99.90
43627;DHT22;29217;52.586;13.442;2023-08-12T11:10:05;24.20;99.90
43627;DHT22;29217;52.586;13.442;2023-08-12T11:12:33;24.30;99.90
43627;DHT22;29217;52.586;13.442;2023-08-12T11:14:59;24.30;99.90
43627;DHT22;29217;52.586;13.442;2023-08-12T11:17:37;24.40;99.90
43627;DHT22;29217;52.586;13.442;2023-08-12T11:20:06;24.30;99.90
43627;DHT22;29217;52.586;13.442;2023-08-12T11:22:33;24.40;99.90
43627;DHT22;29217;52.586;13.442;2023-08-12T11:25:00;24.40;99.90
43627;DHT22;29217;52.586;13.442;2023-08-12T11:27:26;24.50;99.90
43627;DHT22;29217;52.586;13.442;2023-08-12T11:29:52;24.50;99.90
43627;DHT22;29217;52.586;13.442;2023-08-12T11:32:18;24.60;99.90
43627;DHT22;29217;52.586;13.442;2023-08-12T11:34:44;24.70;99.90
43627;DHT22;29217;52.586;13.442;2023-08-12T11:37:10;24.80;99.90
43627;DHT22;29217;52.586;13.442;2023-08-12T11:39:36;24.80;99.90
43627;DHT22;29217;52.586;13.442;2023-08-12T11:42:02;24.80;99.90
43627;DHT22;29217;52.586;13.442;2023-08-12T11:44:28;24.80;99.90
43627;DHT22;29217;52.586;13.442;2023-08-12T11:46:54;24.90;99.90
43627;DHT22;29217;52.586;13.442;2023-08-12T11:49:20;24.80;99.90
43627;DHT22;29217;52.586;13.442;2023-08-12T11:51:47;24.80;99.90
43627;DHT22;29217;52.586;13.442;2023-08-12T11:54:14;24.70;99.90
43627;DHT22;29217;52.586;13.442;2023-08-12T11:56:40;24.70;99.90
43627;DHT22;29217;52.586;13.442;2023-08-12T11:59:06;24.70;99.90
43627;DHT22;29217;52.586;13.442;2023-08-12T12:01:32;24.70;99.90
43627;DHT22;29217;52.586;13.442;2023-08-12T12:04:00;24.70;99.90
43627;DHT22;29217;52.586;13.442;2023-08-12T12:06:35;24.60;99.90
43627;DHT22;29217;52.586;13.442;2023-08-12T12:09:03;24.60;99.90
43627;DHT22;29217;52.586;13.442;2023-08-12T12:11:31;24.60;99.90
43627;DHT22;29217;52.586;13.442;2023-08-12T12:14:01;24.60;99.90
43627;DHT22;29217;52.586;13.442;2023-08-12T12:16:42;24.60;99.90
43627;DHT22;29217;52.586;13.442;2023-08-12T12:19:22;24.60;99.90
43627;DHT22;29217;52.586;13.442;2023-08-12T12:21:50;24.70;99.90
43627;DHT22;29217;52.586;13.442;2023-08-12T12:24:16;24.60;99.90
43627;DHT22;29217;52.586;13.442;2023-08-12T12:26:43;24.60;99.90
43627;DHT22;29217;52.586;13.442;2023-08-12T12:29:09;24.50;99.90
43627;DHT22;29217;52.586;13.442;2023-08-12T12:31:37;24.50;99.90
43627;DHT22;29217;52.586;13.442;2023-08-12T12:34:04;24.40;99.90
43627;DHT22;29217;52.586;13.442;2023-08-12T12:36:30;24.40;99.90
43627;DHT22;29217;52.586;13.442;2023-08-12T12:38:56;24.30;99.90
43627;DHT22;29217;52.586;13.442;2023-08-12T12:41:22;24.20;99.90
43627;DHT22;29217;52.586;13.442;2023-08-12T12:43:48;24.20;99.90
43627;DHT22;29217;52.586;13.442;2023-08-12T12:46:15;24.10;99.90
43627;DHT22;29217;52.586;13.442;2023-08-12T12:48:41;24.10;99.90
43627;DHT22;29217;52.586;13.442;2023-08-12T12:51:07;24.00;99.90
43627;DHT22;29217;52.586;13.442;2023-08-12T12:53:33;24.00;99.90
43627;DHT22;29217;52.586;13.442;2023-08-12T12:55:59;24.10;99.90
43627;DHT22;29217;52.586;13.442;2023-08-12T12:58:30;24.10;99.90
43627;DHT22;29217;52.586;13.442;2023-08-12T13:00:56;24.20;99.90
43627;DHT22;29217;52.586;13.442;2023-08-12T13:03:21;24.30;99.90
43627;DHT22;29217;52.586;13.442;2023-08-12T13:05:47;24.50;99.90
43627;DHT22;29217;52.586;13.442;2023-08-12T13:08:12;24.60;99.90
43627;DHT22;29217;52.586;13.442;2023-08-12T13:10:38;24.60;99.90
43627;DHT22;29217;52.586;13.442;2023-08-12T13:13:03;24.70;99.90
43627;DHT22;29217;52.586;13.442;2023-08-12T13:15:29;24.80;99.90
43627;DHT22;29217;52.586;13.442;2023-08-12T13:17:55;24.80;99.90
43627;DHT22;29217;52.586;13.442;2023-08-12T13:20:21;24.90;99.90
43627;DHT22;29217;52.586;13.442;2023-08-12T13:22:47;25.00;99.90
43627;DHT22;29217;52.586;13.442;2023-08-12T13:25:12;25.20;99.90
43627;DHT22;29217;52.586;13.442;2023-08-12T13:27:38;25.30;99.90
43627;DHT22;29217;52.586;13.442;2023-08-12T13:30:04;25.40;99.90
43627;DHT22;29217;52.586;13.442;2023-08-12T13:32:30;25.40;99.90
43627;DHT22;29217;52.586;13.442;2023-08-12T13:34:56;25.50;99.90
43627;DHT22;29217;52.586;13.442;2023-08-12T13:37:21;25.50;99.90
43627;DHT22;29217;52.586;13.442;2023-08-12T13:39:47;25.60;99.90
43627;DHT22;29217;52.586;13.442;2023-08-12T13:42:13;25.60;99.90
43627;DHT22;29217;52.586;13.442;2023-08-12T13:44:38;25.60;99.90
43627;DHT22;29217;52.586;13.442;2023-08-12T13:47:04;25.80;99.90
43627;DHT22;29217;52.586;13.442;2023-08-12T13:49:30;25.90;99.90
43627;DHT22;29217;52.586;13.442;2023-08-12T13:51:55;26.00;99.90
43627;DHT22;29217;52.586;13.442;2023-08-12T13:54:21;26.00;99.90
43627;DHT22;29217;52.586;13.442;2023-08-12T13:56:46;26.00;99.90
43627;DHT22;29217;52.586;13.442;2023-08-12T13:59:12;26.00;99.90
43627;DHT22;29217;52.586;13.442;2023-08-12T14:01:38;26.10;99.90
43627;DHT22;29217;52.586;13.442;2023-08-12T14:04:03;26.60;99.90
43627;DHT22;29217;52.586;13.442;2023-08-12T14:06:29;26.60;99.90
43627;DHT22;29217;52.586;13.442;2023-08-12T14:08:55;26.60;99.90
43627;DHT22;29217;52.586;13.442;2023-08-12T14:11:20;26.60;99.90
43627;DHT22;29217;52.586;13.442;2023-08-12T14:13:46;26.40;99.90
43627;DHT22;29217;52.586;13.442;2023-08-12T14:16:11;26.40;99.90
43627;DHT22;29217;52.586;13.442;2023-08-12T14:18:37;26.30;99.90
43627;DHT22;29217;52.586;13.442;2023-08-12T14:21:04;26.20;99.90
43627;DHT22;29217;52.586;13.442;2023-08-12T14:23:29;26.40;99.90
43627;DHT22;29217;52.586;13.442;2023-08-12T14:25:55;26.60;99.90
43627;DHT22;29217;52.586;13.442;2023-08-12T14:28:21;27.00;99.90
43627;DHT22;29217;52.586;13.442;2023-08-12T14:30:46;27.50;99.90
43627;DHT22;29217;52.586;13.442;2023-08-12T14:33:12;27.80;99.90
43627;DHT22;29217;52.586;13.442;2023-08-12T14:35:37;27.90;99.90
43627;DHT22;29217;52.586;13.442;2023-08-12T14:38:03;27.60;99.90
43627;DHT22;29217;52.586;13.442;2023-08-12T14:40:29;27.40;99.90
43627;DHT22;29217;52.586;13.442;2023-08-12T14:42:54;27.20;99.90
43627;DHT22;29217;52.586;13.442;2023-08-12T14:45:20;27.10;99.90
43627;DHT22;29217;52.586;13.442;2023-08-12T14:47:45;27.00;99.90
43627;DHT22;29217;52.586;13.442;2023-08-12T14:50:11;26.90;99.90
43627;DHT22;29217;52.586;13.442;2023-08-12T14:52:37;26.80;99.90
43627;DHT22;29217;52.586;13.442;2023-08-12T14:55:03;26.70;99.90
43627;DHT22;29217;52.586;13.442;2023-08-12T14:57:28;26.70;99.90
43627;DHT22;29217;52.586;13.442;2023-08-12T14:59:54;26.80;99.90
43627;DHT22;29217;52.586;13.442;2023-08-12T15:02:20;26.70;99.90
43627;DHT22;29217;52.586;13.442;2023-08-12T15:04:48;26.80;99.90
43627;DHT22;29217;52.586;13.442;2023-08-12T15:07:14;26.70;99.90
43627;DHT22;29217;52.586;13.442;2023-08-12T15:09:41;26.80;99.90
43627;DHT22;29217;52.586;13.442;2023-08-12T15:12:07;26.80;99.90
43627;DHT22;29217;52.586;13.442;2023-08-12T15:14:32;26.90;99.90
43627;DHT22;29217;52.586;13.442;2023-08-12T15:16:58;27.00;99.90
43627;DHT22;29217;52.586;13.442;2023-08-12T15:19:24;26.90;99.90
43627;DHT22;29217;52.586;13.442;2023-08-12T15:21:49;26.90;99.90